Time;durP1;ratioP1;P1;durP2;ratioP2;P2;SDS_P1;SDS_P2;PMS_P1;PMS_P2;Temp;Humidity;BMP_temperature;BMP_pressure;BME280_temperature;BME280_humidity;BME280_pressure;Samples;Min_cycle;Max_cycle;Signal;HPM_P1;HPM_P2
2024/03/28 00:00:20;;;;;;;;;;;23.60;39.70;;;;;;5073151;28;19928;-58
2024/03/28 00:02:46;;;;;;;;;;;23.60;39.70;;;;;;5074100;28;19924;-58
2024/03/28 00:05:12;;;;;;;;;;;23.60;39.70;;;;;;5073861;28;20035;-59
2024/03/28 00:07:38;;;;;;;;;;;23.50;39.70;;;;;;5073421;28;19932;-58
2024/03/28 00:10:04;;;;;;;;;;;23.50;39.70;;;;;;5073694;28;20294;-57
2024/03/28 00:12:30;;;;;;;;;;;23.50;39.70;;;;;;5073463;28;20270;-58
2024/03/28 00:14:56;;;;;;;;;;;23.50;39.70;;;;;;5073612;28;19969;-58
2024/03/28 00:17:22;;;;;;;;;;;23.50;39.70;;;;;;5073289;28;19924;-58
2024/03/28 00:19:48;;;;;;;;;;;23.50;39.80;;;;;;5072940;28;19974;-58
2024/03/28 00:22:15;;;;;;;;;;;23.50;39.80;;;;;;5073247;28;20078;-58
2024/03/28 00:24:43;;;;;;;;;;;23.50;39.80;;;;;;5073249;28;19932;-58
2024/03/28 00:27:10;;;;;;;;;;;23.50;39.80;;;;;;5073478;28;19928;-58
2024/03/28 00:29:35;;;;;;;;;;;23.50;39.80;;;;;;5072917;28;19925;-58
2024/03/28 00:32:01;;;;;;;;;;;23.40;39.80;;;;;;5073268;28;19928;-58
2024/03/28 00:34:27;;;;;;;;;;;23.40;39.80;;;;;;5073421;28;19924;-58
2024/03/28 00:36:53;;;;;;;;;;;23.40;39.80;;;;;;5073192;28;19977;-58
2024/03/28 00:39:19;;;;;;;;;;;23.40;39.80;;;;;;5072755;28;20430;-58
2024/03/28 00:41:44;;;;;;;;;;;23.40;40.40;;;;;;5072953;28;20015;-58
2024/03/28 00:44:10;;;;;;;;;;;23.50;39.90;;;;;;5072891;28;20419;-59
2024/03/28 00:46:36;;;;;;;;;;;23.40;39.90;;;;;;5072762;28;19986;-58
2024/03/28 00:49:02;;;;;;;;;;;23.50;39.90;;;;;;5072721;28;19924;-58
2024/03/28 00:51:28;;;;;;;;;;;23.40;39.90;;;;;;5072476;28;20385;-58
2024/03/28 00:53:54;;;;;;;;;;;23.50;39.90;;;;;;5072255;28;19931;-58
2024/03/28 00:56:19;;;;;;;;;;;23.40;39.80;;;;;;5072417;28;19925;-58
2024/03/28 00:58:45;;;;;;;;;;;23.40;39.80;;;;;;5072597;28;19933;-58
2024/03/28 01:01:11;;;;;;;;;;;23.40;39.80;;;;;;5072052;28;19925;-57
2024/03/28 01:03:37;;;;;;;;;;;23.40;39.80;;;;;;5072433;28;19929;-58
2024/03/28 01:06:03;;;;;;;;;;;23.40;39.80;;;;;;5055634;28;19937;-58
2024/03/28 01:08:29;;;;;;;;;;;23.40;39.80;;;;;;5072488;28;19931;-58
2024/03/28 01:10:55;;;;;;;;;;;23.40;39.80;;;;;;5072401;28;19924;-57
2024/03/28 01:13:21;;;;;;;;;;;23.40;39.80;;;;;;5072237;28;19925;-58
2024/03/28 01:15:46;;;;;;;;;;;23.40;39.90;;;;;;5072503;28;20024;-58
2024/03/28 01:18:12;;;;;;;;;;;23.40;39.90;;;;;;5072080;28;20293;-58
2024/03/28 01:20:38;;;;;;;;;;;23.40;39.90;;;;;;5072067;28;19934;-58
2024/03/28 01:23:04;;;;;;;;;;;23.40;39.90;;;;;;5072564;28;19928;-58
2024/03/28 01:25:30;;;;;;;;;;;23.40;39.90;;;;;;5072185;28;20299;-58
2024/03/28 01:27:56;;;;;;;;;;;23.40;39.90;;;;;;5072062;28;19924;-57
2024/03/28 01:30:22;;;;;;;;;;;23.40;40.00;;;;;;5072387;28;19924;-58
2024/03/28 01:32:48;;;;;;;;;;;23.40;40.00;;;;;;5072012;28;19951;-58
2024/03/28 01:35:14;;;;;;;;;;;23.30;39.90;;;;;;5072285;28;19928;-57
2024/03/28 01:37:40;;;;;;;;;;;23.30;39.90;;;;;;5072018;28;19963;-58
2024/03/28 01:40:07;;;;;;;;;;;23.30;39.90;;;;;;5071591;28;19933;-58
2024/03/28 01:42:33;;;;;;;;;;;23.30;40.50;;;;;;5072034;28;19931;-58
2024/03/28 01:44:59;;;;;;;;;;;23.40;40.10;;;;;;5072323;28;20022;-57
2024/03/28 01:47:25;;;;;;;;;;;23.30;40.00;;;;;;5055383;28;19924;-58
2024/03/28 01:49:51;;;;;;;;;;;23.30;40.00;;;;;;5071747;28;19924;-58
2024/03/28 01:52:17;;;;;;;;;;;23.30;40.00;;;;;;5071805;28;19924;-58
2024/03/28 01:54:44;;;;;;;;;;;23.30;40.00;;;;;;5071717;28;20397;-58
2024/03/28 01:57:11;;;;;;;;;;;23.30;40.10;;;;;;5072136;28;20255;-58
2024/03/28 01:59:38;;;;;;;;;;;23.30;40.00;;;;;;5054714;28;19929;-57
2024/03/28 02:02:05;;;;;;;;;;;23.30;40.00;;;;;;5071532;28;19990;-57
2024/03/28 02:04:30;;;;;;;;;;;23.30;40.00;;;;;;5071613;28;20435;-58
2024/03/28 02:06:56;;;;;;;;;;;23.30;40.00;;;;;;5074665;28;19972;-57
2024/03/28 02:09:25;;;;;;;;;;;23.30;40.00;;;;;;5075579;28;19925;-58
2024/03/28 02:11:54;;;;;;;;;;;23.30;40.00;;;;;;5075877;28;19931;-58
2024/03/28 02:14:20;;;;;;;;;;;23.30;40.10;;;;;;5075762;28;19925;-57
2024/03/28 02:16:46;;;;;;;;;;;23.30;40.00;;;;;;5075815;28;19974;-57
2024/03/28 02:19:12;;;;;;;;;;;23.30;40.00;;;;;;5075555;28;20018;-58
2024/03/28 02:21:38;;;;;;;;;;;23.30;40.10;;;;;;5075122;28;19933;-58
2024/03/28 02:24:04;;;;;;;;;;;23.30;40.60;;;;;;5075647;28;19978;-58
2024/03/28 02:26:30;;;;;;;;;;;23.30;40.00;;;;;;5075736;28;19986;-58
2024/03/28 02:28:56;;;;;;;;;;;23.30;40.00;;;;;;5059043;28;19928;-58
2024/03/28 02:31:23;;;;;;;;;;;23.30;40.00;;;;;;5075422;28;19924;-58
2024/03/28 02:33:49;;;;;;;;;;;23.30;40.10;;;;;;5075555;28;19929;-57
2024/03/28 02:36:15;;;;;;;;;;;23.30;40.10;;;;;;5075499;28;19925;-57
2024/03/28 02:38:41;;;;;;;;;;;23.30;40.10;;;;;;5074798;28;19924;-58
2024/03/28 02:41:07;;;;;;;;;;;23.20;40.10;;;;;;5074445;28;19924;-58
2024/03/28 02:43:32;;;;;;;;;;;23.30;40.10;;;;;;5075232;28;20332;-58
2024/03/28 02:45:58;;;;;;;;;;;23.20;40.10;;;;;;5074790;28;20448;-57
2024/03/28 02:48:24;;;;;;;;;;;23.20;40.10;;;;;;5075099;28;19928;-58
2024/03/28 02:50:50;;;;;;;;;;;23.20;40.10;;;;;;5074868;28;19924;-58
2024/03/28 02:53:16;;;;;;;;;;;23.20;40.10;;;;;;5075086;28;19925;-57
2024/03/28 02:55:42;;;;;;;;;;;23.20;40.20;;;;;;5075097;28;20332;-57
2024/03/28 02:58:08;;;;;;;;;;;23.20;40.20;;;;;;5074635;28;20377;-57
2024/03/28 03:00:34;;;;;;;;;;;23.20;40.70;;;;;;5074765;28;19931;-57
2024/03/28 03:03:01;;;;;;;;;;;23.20;40.20;;;;;;5075430;28;19924;-57
2024/03/28 03:05:27;;;;;;;;;;;23.20;40.20;;;;;;5074509;28;19978;-57
2024/03/28 03:07:53;;;;;;;;;;;23.20;40.20;;;;;;5074735;28;19925;-57
2024/03/28 03:10:19;;;;;;;;;;;23.20;40.20;;;;;;5075002;28;19925;-57
2024/03/28 03:12:45;;;;;;;;;;;23.20;40.30;;;;;;5074886;28;20373;-58
2024/03/28 03:15:11;;;;;;;;;;;23.10;40.20;;;;;;5074878;28;19924;-57
2024/03/28 03:17:37;;;;;;;;;;;23.20;40.20;;;;;;5074618;28;20338;-57
2024/03/28 03:20:13;;;;;;;;;;;23.10;40.20;;;;;;5074103;28;19932;-57
2024/03/28 03:22:48;;;;;;;;;;;23.10;40.20;;;;;;5073436;28;19924;-58
2024/03/28 03:25:25;;;;;;;;;;;23.10;40.20;;;;;;5054627;28;19928;-57
2024/03/28 03:36:10;;;;;;;;;;;23.10;40.20;;;;;;5054184;28;19932;-57
2024/03/28 03:38:36;;;;;;;;;;;23.10;40.20;;;;;;5053591;28;19932;-57
2024/03/28 03:41:03;;;;;;;;;;;23.10;40.20;;;;;;5053848;28;19924;-57
2024/03/28 03:43:29;;;;;;;;;;;23.10;40.20;;;;;;5073748;28;19932;-57
2024/03/28 03:45:55;;;;;;;;;;;23.10;40.20;;;;;;5073934;28;19925;-57
2024/03/28 03:48:21;;;;;;;;;;;23.10;40.30;;;;;;5073970;28;19925;-63
2024/03/28 03:50:47;;;;;;;;;;;23.10;40.30;;;;;;5074359;28;19924;-58
2024/03/28 03:53:13;;;;;;;;;;;23.10;40.30;;;;;;5073879;28;20421;-61
2024/03/28 03:55:39;;;;;;;;;;;23.10;40.30;;;;;;5057241;28;19981;-63
2024/03/28 03:58:07;;;;;;;;;;;23.10;40.30;;;;;;5073818;28;19928;-61
2024/03/28 04:00:33;;;;;;;;;;;23.10;40.30;;;;;;5074167;28;19947;-61
2024/03/28 04:02:59;;;;;;;;;;;23.00;40.30;;;;;;5073553;28;20358;-58
2024/03/28 04:05:25;;;;;;;;;;;23.00;40.30;;;;;;5073817;28;19925;-66
2024/03/28 04:07:50;;;;;;;;;;;23.10;40.40;;;;;;5073848;28;19925;-60
2024/03/28 04:10:16;;;;;;;;;;;23.00;40.40;;;;;;5073795;28;20281;-59
2024/03/28 04:12:42;;;;;;;;;;;23.00;40.40;;;;;;5073792;28;20385;-63
2024/03/28 04:15:08;;;;;;;;;;;23.00;40.40;;;;;;5073777;28;20396;-59
2024/03/28 04:17:34;;;;;;;;;;;23.00;40.40;;;;;;5073508;28;20370;-58
2024/03/28 04:20:02;;;;;;;;;;;23.00;40.40;;;;;;5072866;28;19924;-58
2024/03/28 04:22:28;;;;;;;;;;;23.00;40.40;;;;;;5073322;28;19928;-58
2024/03/28 04:24:55;;;;;;;;;;;23.00;40.40;;;;;;5073214;28;19975;-58
2024/03/28 04:27:22;;;;;;;;;;;23.00;40.40;;;;;;5056860;28;19925;-59
2024/03/28 04:29:48;;;;;;;;;;;23.00;40.40;;;;;;5055524;28;19925;-58
2024/03/28 04:32:13;;;;;;;;;;;23.00;40.40;;;;;;5073440;28;19974;-59
2024/03/28 04:34:39;;;;;;;;;;;23.00;40.40;;;;;;5073402;28;20366;-58
2024/03/28 04:37:05;;;;;;;;;;;23.00;40.40;;;;;;5072735;28;19936;-58
2024/03/28 04:39:31;;;;;;;;;;;23.00;40.40;;;;;;5072551;28;19935;-58
2024/03/28 04:41:57;;;;;;;;;;;23.00;40.00;;;;;;5072506;28;19924;-58
2024/03/28 04:44:23;;;;;;;;;;;23.00;39.80;;;;;;5072882;28;20023;-58
2024/03/28 04:46:48;;;;;;;;;;;23.10;39.70;;;;;;5072868;28;20358;-60
2024/03/28 04:49:14;;;;;;;;;;;23.00;39.40;;;;;;5072660;28;19924;-59
2024/03/28 04:51:42;;;;;;;;;;;23.10;39.30;;;;;;5072545;28;19935;-58
2024/03/28 04:54:08;;;;;;;;;;;23.10;39.20;;;;;;5072184;28;20396;-59
2024/03/28 04:56:39;;;;;;;;;;;23.10;39.10;;;;;;5072412;28;19925;-58
2024/03/28 04:59:05;;;;;;;;;;;23.10;39.10;;;;;;5072184;28;19931;-58
2024/03/28 05:01:31;;;;;;;;;;;23.10;39.60;;;;;;5066378;28;19924;-58
2024/03/28 05:03:57;;;;;;;;;;;23.10;39.00;;;;;;5036101;28;20333;-58
2024/03/28 05:06:23;;;;;;;;;;;23.10;38.90;;;;;;5052370;28;19970;-59
2024/03/28 05:08:49;;;;;;;;;;;23.10;38.80;;;;;;5052891;28;19924;-57
2024/03/28 05:11:15;;;;;;;;;;;23.10;38.70;;;;;;5057766;28;20373;-58
2024/03/28 05:13:43;;;;;;;;;;;23.20;38.60;;;;;;5058645;28;19944;-58
2024/03/28 05:16:10;;;;;;;;;;;23.20;38.50;;;;;;5085169;28;19932;-59
2024/03/28 05:18:36;;;;;;;;;;;23.30;38.50;;;;;;5051351;28;19941;-58
2024/03/28 05:21:02;;;;;;;;;;;23.20;38.30;;;;;;5051807;28;19925;-58
2024/03/28 05:23:28;;;;;;;;;;;23.20;38.20;;;;;;5051970;28;19932;-58
2024/03/28 05:25:54;;;;;;;;;;;23.30;38.10;;;;;;5052231;28;20401;-59
2024/03/28 05:28:20;;;;;;;;;;;23.30;38.00;;;;;;5060646;28;19928;-58
2024/03/28 05:30:47;;;;;;;;;;;23.30;38.00;;;;;;5063862;28;19929;-58
2024/03/28 05:33:13;;;;;;;;;;;23.30;37.80;;;;;;5062153;28;20374;-58
2024/03/28 05:35:40;;;;;;;;;;;23.30;37.80;;;;;;5060159;28;19940;-59
2024/03/28 05:38:06;;;;;;;;;;;23.30;37.70;;;;;;5061413;28;20018;-59
2024/03/28 05:40:32;;;;;;;;;;;23.30;38.20;;;;;;5053951;28;19967;-58
2024/03/28 05:42:57;;;;;;;;;;;23.30;37.60;;;;;;5056898;28;19925;-59
2024/03/28 05:45:23;;;;;;;;;;;23.30;37.50;;;;;;5059790;28;19978;-58
2024/03/28 05:47:49;;;;;;;;;;;23.30;37.40;;;;;;5060126;28;20337;-58
2024/03/28 05:50:15;;;;;;;;;;;23.30;37.30;;;;;;5058661;28;19929;-58
2024/03/28 05:52:41;;;;;;;;;;;23.40;37.30;;;;;;5063722;28;19929;-58
2024/03/28 05:55:07;;;;;;;;;;;23.40;37.10;;;;;;5059513;28;19924;-58
2024/03/28 05:57:33;;;;;;;;;;;23.40;37.60;;;;;;5064568;28;19934;-59
2024/03/28 05:59:59;;;;;;;;;;;23.40;36.90;;;;;;5063516;28;19930;-59
2024/03/28 06:02:24;;;;;;;;;;;23.40;36.90;;;;;;5064085;28;19932;-59
2024/03/28 06:04:50;;;;;;;;;;;23.40;36.80;;;;;;5055500;28;19931;-59
2024/03/28 06:07:16;;;;;;;;;;;23.50;36.70;;;;;;5057791;28;19998;-58
2024/03/28 06:09:42;;;;;;;;;;;23.50;36.60;;;;;;5062911;28;20373;-58
2024/03/28 06:12:08;;;;;;;;;;;23.50;36.60;;;;;;5063300;28;19932;-58
2024/03/28 06:14:36;;;;;;;;;;;23.50;36.40;;;;;;5056963;28;19925;-59
2024/03/28 06:17:02;;;;;;;;;;;23.60;36.40;;;;;;5058721;28;20400;-58
2024/03/28 06:19:28;;;;;;;;;;;23.60;36.30;;;;;;5070695;28;19924;-58
2024/03/28 06:21:54;;;;;;;;;;;23.60;36.20;;;;;;5066609;28;19931;-60
2024/03/28 06:24:19;;;;;;;;;;;23.60;36.30;;;;;;5062780;28;20459;-61
2024/03/28 06:26:47;;;;;;;;;;;23.60;36.60;;;;;;5063630;28;19924;-58
2024/03/28 06:29:12;;;;;;;;;;;23.60;36.90;;;;;;5057587;28;20152;-59
2024/03/28 06:31:40;;;;;;;;;;;23.60;37.10;;;;;;5047042;28;19932;-58
2024/03/28 06:34:06;;;;;;;;;;;23.60;37.20;;;;;;5064700;28;20450;-59
2024/03/28 06:36:32;;;;;;;;;;;23.70;37.40;;;;;;5061254;28;19929;-59
2024/03/28 06:38:58;;;;;;;;;;;23.70;37.40;;;;;;5065521;28;19977;-58
2024/03/28 06:41:24;;;;;;;;;;;23.70;37.50;;;;;;5061827;28;19928;-59
2024/03/28 06:43:49;;;;;;;;;;;23.80;37.40;;;;;;5060524;28;19929;-58
2024/03/28 06:46:16;;;;;;;;;;;23.90;37.40;;;;;;5056712;28;19925;-58
2024/03/28 06:48:42;;;;;;;;;;;23.90;37.30;;;;;;5057519;28;19958;-58
2024/03/28 06:51:08;;;;;;;;;;;23.90;37.30;;;;;;5051420;28;19944;-56
2024/03/28 06:53:34;;;;;;;;;;;24.00;37.20;;;;;;5054553;28;20438;-58
2024/03/28 06:56:00;;;;;;;;;;;24.10;37.00;;;;;;5056735;28;19932;-58
2024/03/28 06:58:26;;;;;;;;;;;24.00;36.70;;;;;;5061299;28;19978;-58
2024/03/28 07:00:58;;;;;;;;;;;24.10;36.50;;;;;;5058016;28;19954;-59
2024/03/28 07:03:25;;;;;;;;;;;24.10;36.40;;;;;;5056620;28;19935;-58
2024/03/28 07:05:51;;;;;;;;;;;24.10;36.80;;;;;;5060469;28;20971;-58
2024/03/28 07:08:17;;;;;;;;;;;24.10;36.20;;;;;;5059533;28;20431;-58
2024/03/28 07:10:43;;;;;;;;;;;24.20;36.10;;;;;;5043403;28;19935;-58
2024/03/28 07:13:09;;;;;;;;;;;24.20;36.10;;;;;;5056992;28;20322;-57
2024/03/28 07:15:35;;;;;;;;;;;24.20;36.00;;;;;;5053856;28;19928;-60
2024/03/28 07:18:01;;;;;;;;;;;24.20;35.90;;;;;;5059404;28;19925;-58
2024/03/28 07:20:27;;;;;;;;;;;24.20;35.80;;;;;;5062662;28;19939;-59
2024/03/28 07:22:52;;;;;;;;;;;24.30;35.80;;;;;;5061403;28;20485;-58
2024/03/28 07:25:18;;;;;;;;;;;24.30;35.80;;;;;;5064877;28;19939;-58
2024/03/28 07:27:44;;;;;;;;;;;24.30;35.70;;;;;;5065852;28;20401;-59
2024/03/28 07:30:10;;;;;;;;;;;24.30;35.70;;;;;;5057673;28;20305;-59
2024/03/28 07:32:37;;;;;;;;;;;24.30;35.60;;;;;;5062233;28;19932;-62
2024/03/28 07:35:03;;;;;;;;;;;24.30;35.70;;;;;;5046688;28;21629;-59
2024/03/28 07:37:28;;;;;;;;;;;24.40;35.80;;;;;;5061831;28;19933;-59
2024/03/28 07:39:54;;;;;;;;;;;24.40;35.80;;;;;;5062438;28;19931;-59
2024/03/28 07:42:20;;;;;;;;;;;24.40;35.70;;;;;;5059342;28;19931;-59
2024/03/28 07:44:46;;;;;;;;;;;24.50;35.70;;;;;;5062749;28;20755;-59
2024/03/28 07:47:12;;;;;;;;;;;24.50;35.70;;;;;;5062183;28;20015;-58
2024/03/28 07:49:38;;;;;;;;;;;24.50;35.70;;;;;;5062782;28;19932;-59
2024/03/28 07:52:04;;;;;;;;;;;24.50;35.90;;;;;;5061434;28;20315;-58
2024/03/28 07:54:30;;;;;;;;;;;24.50;35.30;;;;;;5060336;28;19987;-58
2024/03/28 07:56:56;;;;;;;;;;;24.50;35.20;;;;;;5060937;28;19933;-58
2024/03/28 07:59:22;;;;;;;;;;;24.60;35.20;;;;;;5058492;28;19978;-58
2024/03/28 08:01:48;;;;;;;;;;;24.60;35.50;;;;;;5059773;28;20168;-58
2024/03/28 08:04:14;;;;;;;;;;;24.60;35.50;;;;;;5059861;28;19932;-58
2024/03/28 08:06:42;;;;;;;;;;;24.60;35.50;;;;;;5062257;28;19932;-60
2024/03/28 08:09:08;;;;;;;;;;;24.70;35.40;;;;;;5056494;28;19924;-59
2024/03/28 08:11:34;;;;;;;;;;;24.70;35.50;;;;;;5065113;28;19924;-59
2024/03/28 08:14:00;;;;;;;;;;;24.70;35.50;;;;;;5059832;28;19947;-59
2024/03/28 08:16:26;;;;;;;;;;;24.70;35.30;;;;;;5058312;28;20358;-60
2024/03/28 08:18:53;;;;;;;;;;;24.80;35.60;;;;;;5060174;28;19932;-60
2024/03/28 08:21:19;;;;;;;;;;;24.80;35.50;;;;;;5042685;28;19986;-60
2024/03/28 08:23:45;;;;;;;;;;;24.80;35.60;;;;;;5043108;28;19928;-61
2024/03/28 08:26:11;;;;;;;;;;;24.80;35.70;;;;;;5055504;28;20129;-60
2024/03/28 08:28:37;;;;;;;;;;;24.90;35.80;;;;;;5059040;28;20392;-60
2024/03/28 08:31:06;;;;;;;;;;;24.80;35.70;;;;;;5058694;28;19977;-60
2024/03/28 08:33:35;;;;;;;;;;;24.90;35.70;;;;;;5058682;28;19932;-59
2024/03/28 08:36:02;;;;;;;;;;;24.90;35.80;;;;;;5059230;28;19924;-60
2024/03/28 08:38:28;;;;;;;;;;;24.90;35.60;;;;;;5055766;28;19925;-60
2024/03/28 08:40:54;;;;;;;;;;;24.90;35.60;;;;;;5060761;28;20059;-60
2024/03/28 08:43:20;;;;;;;;;;;25.00;35.60;;;;;;5060650;28;19941;-59
2024/03/28 08:45:47;;;;;;;;;;;25.00;35.50;;;;;;5055749;28;19928;-59
2024/03/28 08:48:13;;;;;;;;;;;25.00;35.50;;;;;;5059533;28;19928;-59
2024/03/28 08:50:39;;;;;;;;;;;25.00;35.30;;;;;;5059941;28;20581;-59
2024/03/28 08:53:05;;;;;;;;;;;25.00;35.20;;;;;;5066066;28;19925;-59
2024/03/28 08:55:32;;;;;;;;;;;25.10;35.30;;;;;;5060775;28;20017;-60
2024/03/28 08:57:58;;;;;;;;;;;25.10;35.30;;;;;;5060346;28;19928;-59
2024/03/28 09:00:25;;;;;;;;;;;25.10;35.30;;;;;;5059535;28;20370;-60
2024/03/28 09:02:52;;;;;;;;;;;25.10;35.10;;;;;;5056246;28;19989;-60
2024/03/28 09:05:18;;;;;;;;;;;25.20;35.20;;;;;;5060632;28;20002;-60
2024/03/28 09:07:49;;;;;;;;;;;25.20;35.10;;;;;;5062288;28;19932;-60
2024/03/28 09:10:19;;;;;;;;;;;25.30;35.10;;;;;;5063564;28;19940;-60
2024/03/28 09:12:47;;;;;;;;;;;25.30;34.80;;;;;;5057888;28;20347;-60
2024/03/28 09:15:14;;;;;;;;;;;25.40;35.30;;;;;;5060267;28;19932;-60
2024/03/28 09:17:40;;;;;;;;;;;25.40;34.60;;;;;;5057163;28;19935;-60
2024/03/28 09:20:07;;;;;;;;;;;25.50;34.50;;;;;;5056384;28;20374;-59
2024/03/28 09:22:36;;;;;;;;;;;25.60;34.40;;;;;;5056402;28;19933;-60
2024/03/28 09:25:02;;;;;;;;;;;25.60;34.20;;;;;;5064150;28;20373;-59
2024/03/28 09:27:29;;;;;;;;;;;25.70;34.20;;;;;;5062055;28;19940;-60
2024/03/28 09:29:55;;;;;;;;;;;25.70;33.90;;;;;;5057752;28;19932;-60
2024/03/28 09:32:21;;;;;;;;;;;25.80;33.80;;;;;;5059262;28;20720;-59
2024/03/28 09:34:48;;;;;;;;;;;25.80;33.70;;;;;;5057035;28;19929;-59
2024/03/28 09:37:14;;;;;;;;;;;25.80;33.60;;;;;;5056864;28;19924;-59
2024/03/28 09:39:40;;;;;;;;;;;25.90;33.50;;;;;;5062253;28;20046;-59
2024/03/28 09:42:11;;;;;;;;;;;25.90;33.50;;;;;;5055212;28;19967;-60
2024/03/28 09:44:38;;;;;;;;;;;25.90;33.90;;;;;;5059486;28;19928;-60
2024/03/28 09:47:05;;;;;;;;;;;26.00;33.50;;;;;;5058209;28;19932;-60
2024/03/28 09:49:33;;;;;;;;;;;26.00;33.30;;;;;;5075700;28;20390;-60
2024/03/28 09:52:01;;;;;;;;;;;26.00;33.20;;;;;;5059251;28;20270;-60
2024/03/28 09:54:32;;;;;;;;;;;26.10;33.20;;;;;;5052815;28;19939;-61
2024/03/28 09:56:58;;;;;;;;;;;26.10;33.20;;;;;;5058095;28;19939;-60
2024/03/28 09:59:24;;;;;;;;;;;26.10;33.20;;;;;;5059081;28;19932;-60
2024/03/28 10:01:50;;;;;;;;;;;26.10;33.20;;;;;;5057781;28;19935;-60
2024/03/28 10:04:17;;;;;;;;;;;26.10;33.10;;;;;;5065689;28;19941;-59
2024/03/28 10:06:47;;;;;;;;;;;26.20;33.10;;;;;;5055953;28;19978;-59
2024/03/28 10:09:13;;;;;;;;;;;26.20;33.00;;;;;;5056280;28;19936;-59
2024/03/28 10:11:40;;;;;;;;;;;26.30;33.10;;;;;;5060141;28;19928;-60
2024/03/28 10:14:32;;;;;;;;;;;26.30;32.90;;;;;;5059909;28;20332;-61
2024/03/28 10:16:59;;;;;;;;;;;26.40;32.90;;;;;;5058749;28;19932;-61
2024/03/28 10:19:28;;;;;;;;;;;26.40;32.80;;;;;;5057193;28;19947;-62
2024/03/28 10:22:11;;;;;;;;;;;26.40;32.60;;;;;;5055929;28;19925;-61
2024/03/28 10:24:37;;;;;;;;;;;26.50;32.60;;;;;;5064345;28;19931;-59
2024/03/28 10:27:13;;;;;;;;;;;26.50;32.60;;;;;;5061336;28;19924;-59
2024/03/28 10:29:47;;;;;;;;;;;26.50;32.60;;;;;;5059785;28;19932;-59
2024/03/28 10:32:13;;;;;;;;;;;26.50;32.60;;;;;;5058977;28;19936;-61
2024/03/28 10:34:44;;;;;;;;;;;26.50;32.50;;;;;;5059197;28;19928;-61
2024/03/28 10:37:10;;;;;;;;;;;26.60;32.40;;;;;;5063194;28;19933;-60
2024/03/28 10:39:36;;;;;;;;;;;26.60;32.30;;;;;;5056661;28;20089;-60
2024/03/28 10:42:04;;;;;;;;;;;26.60;32.30;;;;;;5062807;28;19932;-60
2024/03/28 10:44:31;;;;;;;;;;;26.60;32.20;;;;;;5059281;28;19932;-60
2024/03/28 10:46:57;;;;;;;;;;;26.60;32.20;;;;;;5041337;28;19925;-60
2024/03/28 10:49:28;;;;;;;;;;;26.60;32.10;;;;;;5068398;28;19929;-59
2024/03/28 10:51:56;;;;;;;;;;;26.60;32.50;;;;;;5063727;28;19925;-61
2024/03/28 10:54:26;;;;;;;;;;;26.60;32.00;;;;;;5081502;28;20396;-60
2024/03/28 10:56:54;;;;;;;;;;;26.60;32.00;;;;;;5058468;28;19924;-60
2024/03/28 10:59:20;;;;;;;;;;;26.60;32.10;;;;;;5062771;28;19950;-59
2024/03/28 11:01:47;;;;;;;;;;;26.60;32.00;;;;;;5061931;28;19925;-59
2024/03/28 11:04:16;;;;;;;;;;;26.60;32.00;;;;;;5061413;28;19932;-59
2024/03/28 11:06:43;;;;;;;;;;;26.60;31.90;;;;;;5062494;28;19932;-60
2024/03/28 11:09:10;;;;;;;;;;;26.60;31.80;;;;;;5064351;28;19928;-61
2024/03/28 11:11:36;;;;;;;;;;;26.60;32.30;;;;;;5069924;28;20014;-60
2024/03/28 11:14:03;;;;;;;;;;;26.60;31.80;;;;;;5064376;28;20386;-59
2024/03/28 11:16:28;;;;;;;;;;;26.60;31.80;;;;;;5069560;28;19932;-59
2024/03/28 11:18:59;;;;;;;;;;;26.70;31.90;;;;;;5049916;28;19978;-59
2024/03/28 11:21:28;;;;;;;;;;;26.60;31.80;;;;;;5056908;28;19924;-58
2024/03/28 11:23:54;;;;;;;;;;;26.70;32.40;;;;;;5068414;28;19932;-59
2024/03/28 11:26:21;;;;;;;;;;;26.70;31.70;;;;;;5068009;28;19924;-58
2024/03/28 11:28:47;;;;;;;;;;;26.80;31.70;;;;;;5063259;28;19932;-59
2024/03/28 11:31:23;;;;;;;;;;;26.80;31.60;;;;;;5059617;28;19932;-58
2024/03/28 11:33:58;;;;;;;;;;;26.80;31.70;;;;;;5061713;28;19936;-59
2024/03/28 11:36:27;;;;;;;;;;;26.80;32.20;;;;;;5059335;28;20279;-59
2024/03/28 11:38:53;;;;;;;;;;;26.80;31.60;;;;;;5055344;28;19925;-62
2024/03/28 11:41:20;;;;;;;;;;;26.80;31.60;;;;;;5060963;28;20402;-58
2024/03/28 11:43:46;;;;;;;;;;;26.80;31.60;;;;;;5062225;28;19928;-58
2024/03/28 11:46:12;;;;;;;;;;;26.80;31.60;;;;;;5048238;28;19962;-59
2024/03/28 11:48:38;;;;;;;;;;;26.80;32.30;;;;;;5061096;28;19929;-68
2024/03/28 11:51:04;;;;;;;;;;;26.80;31.70;;;;;;5061385;28;19924;-62
2024/03/28 11:53:34;;;;;;;;;;;26.80;31.60;;;;;;5048889;28;19924;-59
2024/03/28 11:56:01;;;;;;;;;;;26.80;31.60;;;;;;5064757;28;19924;-60
2024/03/28 11:58:28;;;;;;;;;;;26.80;31.60;;;;;;5059489;28;20476;-60
2024/03/28 12:01:02;;;;;;;;;;;26.90;31.60;;;;;;5065112;28;19975;-64
2024/03/28 12:03:28;;;;;;;;;;;26.90;31.60;;;;;;5061471;28;19928;-65
2024/03/28 12:05:55;;;;;;;;;;;26.80;31.50;;;;;;5063545;28;19975;-64
2024/03/28 12:08:22;;;;;;;;;;;26.90;31.50;;;;;;5063482;28;19931;-60
2024/03/28 12:10:48;;;;;;;;;;;26.90;31.50;;;;;;5062701;28;19931;-63
2024/03/28 12:13:14;;;;;;;;;;;26.80;31.40;;;;;;5058434;28;20335;-62
2024/03/28 12:15:43;;;;;;;;;;;26.80;32.20;;;;;;5060952;28;19932;-59
2024/03/28 12:18:09;;;;;;;;;;;26.80;31.70;;;;;;5066412;28;19935;-59
2024/03/28 12:20:35;;;;;;;;;;;26.70;31.70;;;;;;5064967;28;19924;-59
2024/03/28 12:23:03;;;;;;;;;;;26.70;31.80;;;;;;5059887;28;19928;-59
2024/03/28 12:25:30;;;;;;;;;;;26.70;31.80;;;;;;5068612;28;19974;-60
2024/03/28 12:27:57;;;;;;;;;;;26.60;31.70;;;;;;5059710;28;19924;-59
2024/03/28 12:30:25;;;;;;;;;;;26.70;31.90;;;;;;5069031;28;19925;-60
2024/03/28 12:33:01;;;;;;;;;;;26.60;31.80;;;;;;5067094;28;20015;-60
2024/03/28 12:35:28;;;;;;;;;;;26.60;31.90;;;;;;5068849;28;19935;-60
2024/03/28 12:37:53;;;;;;;;;;;26.60;32.00;;;;;;5067491;28;19929;-59
2024/03/28 12:40:21;;;;;;;;;;;26.60;31.90;;;;;;5062959;28;20285;-61
2024/03/28 12:42:46;;;;;;;;;;;26.60;31.80;;;;;;5062921;28;20511;-59
2024/03/28 12:45:16;;;;;;;;;;;26.60;31.90;;;;;;5060174;28;19925;-59
2024/03/28 12:47:45;;;;;;;;;;;26.60;31.90;;;;;;5065153;28;19932;-59
2024/03/28 12:50:12;;;;;;;;;;;26.60;32.40;;;;;;5062514;28;19932;-61
2024/03/28 12:52:44;;;;;;;;;;;26.60;31.80;;;;;;5044541;28;20502;-61
2024/03/28 12:55:10;;;;;;;;;;;26.60;31.90;;;;;;5059731;28;19932;-61
2024/03/28 12:57:36;;;;;;;;;;;26.60;31.90;;;;;;5062179;28;19932;-60
2024/03/28 13:00:02;;;;;;;;;;;26.60;31.80;;;;;;5065218;28;19924;-60
2024/03/28 13:02:28;;;;;;;;;;;26.60;31.70;;;;;;5062739;28;20564;-61
2024/03/28 13:04:54;;;;;;;;;;;26.60;31.80;;;;;;5061709;28;19967;-60
2024/03/28 13:07:20;;;;;;;;;;;26.70;31.90;;;;;;5060150;28;19924;-61
2024/03/28 13:09:46;;;;;;;;;;;26.70;31.80;;;;;;5061022;28;20324;-60
2024/03/28 13:12:12;;;;;;;;;;;26.70;31.80;;;;;;5061784;28;19928;-61
2024/03/28 13:14:38;;;;;;;;;;;26.70;31.70;;;;;;5063647;28;20282;-60
2024/03/28 13:17:03;;;;;;;;;;;26.70;31.60;;;;;;5060353;28;19932;-60
2024/03/28 13:19:32;;;;;;;;;;;26.70;31.70;;;;;;5057283;28;19972;-60
2024/03/28 13:21:58;;;;;;;;;;;26.60;31.90;;;;;;5059838;28;19982;-60
2024/03/28 13:24:24;;;;;;;;;;;26.70;32.00;;;;;;5057250;28;19924;-61
2024/03/28 13:26:51;;;;;;;;;;;26.70;32.10;;;;;;5061232;28;19925;-62
2024/03/28 13:29:17;;;;;;;;;;;26.70;32.60;;;;;;5055084;28;19925;-61
2024/03/28 13:31:43;;;;;;;;;;;26.70;32.20;;;;;;5058658;28;19924;-61
2024/03/28 13:34:10;;;;;;;;;;;26.70;32.20;;;;;;5059448;28;19981;-60
2024/03/28 13:36:36;;;;;;;;;;;26.70;32.10;;;;;;5060122;28;19925;-59
2024/03/28 13:39:02;;;;;;;;;;;26.70;32.10;;;;;;5061159;28;19925;-61
2024/03/28 13:41:28;;;;;;;;;;;26.70;32.10;;;;;;5059615;28;20576;-61
2024/03/28 13:43:54;;;;;;;;;;;26.70;32.10;;;;;;5057710;28;19932;-60
2024/03/28 13:46:21;;;;;;;;;;;26.60;32.10;;;;;;5060550;28;19924;-61
2024/03/28 13:48:47;;;;;;;;;;;26.60;32.00;;;;;;5057222;28;19932;-62
2024/03/28 13:51:13;;;;;;;;;;;26.60;32.00;;;;;;5058985;28;19968;-61
2024/03/28 13:53:39;;;;;;;;;;;26.50;32.20;;;;;;5064044;28;20432;-61
2024/03/28 13:56:05;;;;;;;;;;;26.60;32.40;;;;;;5062177;28;20327;-60
2024/03/28 13:58:31;;;;;;;;;;;26.50;32.30;;;;;;5055868;28;19925;-62
2024/03/28 14:00:56;;;;;;;;;;;26.50;32.30;;;;;;5059012;28;20000;-61
2024/03/28 14:03:22;;;;;;;;;;;26.50;32.40;;;;;;5056989;28;20416;-61
2024/03/28 14:05:48;;;;;;;;;;;26.50;32.60;;;;;;5062729;28;19931;-61
2024/03/28 14:08:14;;;;;;;;;;;26.40;32.50;;;;;;5061349;28;19924;-61
2024/03/28 14:10:40;;;;;;;;;;;26.40;32.90;;;;;;5062182;28;20389;-61
2024/03/28 14:13:06;;;;;;;;;;;26.40;32.40;;;;;;5064831;28;20003;-61
2024/03/28 14:15:33;;;;;;;;;;;26.40;32.40;;;;;;5060991;28;19929;-61
2024/03/28 14:17:59;;;;;;;;;;;26.30;32.40;;;;;;5062363;28;20393;-61
2024/03/28 14:20:25;;;;;;;;;;;26.30;32.50;;;;;;5070150;28;19999;-63